Kunia, Hawaii
Current Conditions -  °F | °C
As of 11:58 PM on Thursday 23 Oct 2014 (Local Time) from PHHI Reporting Station
Clear Clear  
Wind Chill: 72°   Ceiling: Unl
Heat Index: 72°   Visibility: 10mi
Dew Point: 70°   Wind: 7mph
Humidity: 94%   Direction: 60°ENE
Pressure: 30.06"   Gusts: NA
Location:  21.48°N, 158.07°W
Report Text: PHHI 240958Z AUTO 06006KT 10SM CLR 22/21 A3006 RMK AO2 DZB0957 SLP168 P0000 $
Loading
Personal Weather Stations






























Interactive Weather Map
Tropical Storm Tracking
New forecast layout! Learn more

10-Day Weather Forecast

Advertisements
Track Severe Weather on mobile